createdAt,value
2022-07-28T00:00:33.883Z,1.00
2022-07-28T00:03:02.092Z,1.10
2022-07-28T00:05:30.514Z,1.03
2022-07-28T00:07:59.176Z,1.30
2022-07-28T00:10:27.443Z,0.97
2022-07-28T00:12:55.717Z,1.30
2022-07-28T00:15:25.209Z,1.20
2022-07-28T00:17:53.934Z,1.17
2022-07-28T00:20:22.273Z,1.10
2022-07-28T00:22:50.442Z,1.00
2022-07-28T00:25:18.622Z,1.00
2022-07-28T00:27:46.803Z,1.10
2022-07-28T00:30:15.204Z,0.83
2022-07-28T00:32:44.808Z,1.27
2022-07-28T00:35:13.131Z,1.10
2022-07-28T00:37:43.143Z,1.27
2022-07-28T00:40:13.010Z,1.10
2022-07-28T00:42:41.145Z,1.13
2022-07-28T00:45:10.770Z,1.10
2022-07-28T00:47:38.985Z,1.03
2022-07-28T00:50:09.463Z,1.10
2022-07-28T00:52:37.871Z,1.10
2022-07-28T00:55:07.282Z,1.00
2022-07-28T00:57:35.717Z,1.20
2022-07-28T01:00:05.247Z,0.93
2022-07-28T01:02:33.457Z,1.30
2022-07-28T01:05:01.648Z,1.03
2022-07-28T01:07:39.977Z,1.20
2022-07-28T01:10:13.700Z,1.00
2022-07-28T01:12:59.612Z,1.07
2022-07-28T01:15:41.987Z,1.00
2022-07-28T01:18:16.948Z,1.10
2022-07-28T01:20:48.460Z,1.00
2022-07-28T01:23:44.082Z,1.13
2022-07-28T01:26:35.332Z,1.17
2022-07-28T01:29:17.159Z,1.30
2022-07-28T01:31:55.063Z,1.60
2022-07-28T01:34:31.678Z,1.07
2022-07-28T01:37:06.806Z,1.20
2022-07-28T01:39:38.596Z,1.00
2022-07-28T01:42:09.637Z,1.00
2022-07-28T01:44:42.775Z,1.80
2022-07-28T01:47:13.133Z,1.20
2022-07-28T01:49:45.054Z,1.20
2022-07-28T01:52:14.676Z,1.50
2022-07-28T01:54:46.569Z,1.03
2022-07-28T01:57:18.660Z,0.90
2022-07-28T01:59:48.210Z,1.20
2022-07-28T02:02:23.477Z,1.50
2022-07-28T02:04:53.156Z,1.17
2022-07-28T02:07:23.412Z,0.90
2022-07-28T02:09:51.982Z,1.60
2022-07-28T02:12:21.079Z,1.50
2022-07-28T02:14:51.872Z,1.30
2022-07-28T02:17:26.223Z,1.20
2022-07-28T02:19:54.930Z,1.00
2022-07-28T02:22:23.722Z,1.30
2022-07-28T02:24:54.195Z,1.17
2022-07-28T02:27:25.626Z,1.40
2022-07-28T02:30:04.660Z,1.10
2022-07-28T02:32:41.660Z,1.40
2022-07-28T02:35:19.939Z,1.47
2022-07-28T02:38:05.513Z,1.10
2022-07-28T02:40:38.204Z,1.30
2022-07-28T02:43:11.501Z,1.17
2022-07-28T02:45:43.872Z,1.50
2022-07-28T02:48:18.477Z,1.13
2022-07-28T02:50:47.895Z,1.37
2022-07-28T02:53:17.740Z,1.27
2022-07-28T02:55:48.725Z,1.00
2022-07-28T02:58:19.425Z,0.90
2022-07-28T03:00:48.491Z,1.00
2022-07-28T03:03:19.644Z,1.30
2022-07-28T03:05:48.673Z,1.10
2022-07-28T03:08:18.061Z,1.03
2022-07-28T03:10:46.654Z,1.10
2022-07-28T03:13:14.803Z,0.90
2022-07-28T03:15:42.856Z,1.10
2022-07-28T03:18:10.929Z,1.33
2022-07-28T03:20:40.418Z,1.10
2022-07-28T03:23:10.590Z,1.27
2022-07-28T03:25:47.485Z,1.13
2022-07-28T03:28:20.905Z,1.30
2022-07-28T03:30:56.827Z,1.00
2022-07-28T03:33:25.596Z,1.20
2022-07-28T03:35:59.019Z,1.10
2022-07-28T03:38:34.760Z,1.20
2022-07-28T03:41:03.775Z,1.20
2022-07-28T03:43:34.539Z,1.30
2022-07-28T03:46:02.777Z,1.40
2022-07-28T03:48:31.366Z,1.13
2022-07-28T03:51:00.750Z,1.30
2022-07-28T03:53:30.659Z,1.03
2022-07-28T03:55:59.110Z,1.17
2022-07-28T03:58:29.288Z,1.10
2022-07-28T04:00:57.731Z,1.23
2022-07-28T04:03:42.726Z,1.20
2022-07-28T04:06:15.045Z,1.00
2022-07-28T04:08:44.662Z,1.13
2022-07-28T04:11:13.584Z,1.20
2022-07-28T04:13:41.668Z,1.50
2022-07-28T04:16:09.834Z,1.07
2022-07-28T04:18:38.072Z,1.20
2022-07-28T04:21:07.762Z,1.67
2022-07-28T04:23:37.128Z,1.17
2022-07-28T04:26:05.413Z,1.13
2022-07-28T04:28:33.416Z,1.70
2022-07-28T04:31:01.539Z,1.20
2022-07-28T04:33:30.498Z,1.03
2022-07-28T04:36:00.723Z,1.47
2022-07-28T04:38:28.971Z,1.43
2022-07-28T04:40:58.487Z,1.33
2022-07-28T04:43:26.624Z,1.17
2022-07-28T04:45:54.820Z,1.43
2022-07-28T04:48:23.978Z,1.60
2022-07-28T04:50:52.716Z,1.47
2022-07-28T04:53:24.123Z,1.33
2022-07-28T04:55:54.560Z,1.10
2022-07-28T04:58:26.960Z,1.37
2022-07-28T05:00:59.011Z,1.90
2022-07-28T05:03:27.167Z,1.33
2022-07-28T05:05:55.451Z,1.20
2022-07-28T05:08:26.164Z,1.40
2022-07-28T05:10:56.733Z,1.40
2022-07-28T05:13:31.809Z,1.70
2022-07-28T05:16:01.578Z,1.50
2022-07-28T05:18:29.772Z,1.63
2022-07-28T05:20:57.807Z,1.90
2022-07-28T05:23:25.876Z,1.20
2022-07-28T05:25:54.448Z,1.50
2022-07-28T05:28:22.478Z,1.40
2022-07-28T05:30:51.933Z,1.53
2022-07-28T05:33:19.948Z,1.60
2022-07-28T05:35:54.625Z,1.53
2022-07-28T05:38:22.783Z,1.63
2022-07-28T05:40:51.008Z,1.50
2022-07-28T05:43:19.190Z,1.20
2022-07-28T05:45:47.576Z,1.23
2022-07-28T05:48:18.355Z,1.60
2022-07-28T05:50:47.233Z,1.60
2022-07-28T05:53:15.862Z,1.30
2022-07-28T05:56:00.382Z,1.50
2022-07-28T05:58:30.732Z,1.87
2022-07-28T06:01:01.921Z,1.47
2022-07-28T06:03:39.756Z,1.70
2022-07-28T06:06:16.002Z,1.77
2022-07-28T06:08:47.177Z,1.50
2022-07-28T06:11:22.836Z,1.40
2022-07-28T06:13:52.844Z,1.60
2022-07-28T06:16:23.205Z,1.83
2022-07-28T06:18:53.891Z,1.80
2022-07-28T06:21:24.217Z,1.50
2022-07-28T06:23:52.348Z,1.70
2022-07-28T06:26:23.554Z,2.20
2022-07-28T06:28:52.186Z,1.70
2022-07-28T06:31:20.355Z,2.00
2022-07-28T06:33:48.446Z,1.77
2022-07-28T06:36:17.844Z,2.00
2022-07-28T06:38:45.996Z,2.17
2022-07-28T06:41:14.101Z,1.93
2022-07-28T06:43:42.141Z,2.00
2022-07-28T06:46:10.204Z,2.07
2022-07-28T06:48:39.363Z,2.67
2022-07-28T06:51:07.715Z,1.83
2022-07-28T06:53:37.153Z,2.13
2022-07-28T06:56:06.671Z,2.30
2022-07-28T06:58:35.793Z,2.20
2022-07-28T07:01:07.619Z,2.57
2022-07-28T07:03:36.113Z,2.17
2022-07-28T07:06:04.555Z,2.00
2022-07-28T07:08:32.858Z,2.17
2022-07-28T07:11:02.417Z,1.83
2022-07-28T07:13:30.491Z,2.20
2022-07-28T07:15:58.632Z,2.23
2022-07-28T07:18:26.932Z,2.40
2022-07-28T07:20:58.639Z,2.23
2022-07-28T07:23:26.836Z,2.80
2022-07-28T07:25:55.076Z,2.23
2022-07-28T07:28:24.531Z,2.50
2022-07-28T07:30:52.637Z,2.70
2022-07-28T07:33:20.810Z,2.90
2022-07-28T07:35:48.841Z,2.70
2022-07-28T07:38:16.911Z,2.93
2022-07-28T07:40:45.112Z,3.27
2022-07-28T07:43:13.818Z,2.87
2022-07-28T07:45:43.299Z,2.67
2022-07-28T07:48:12.586Z,2.53
2022-07-28T07:50:40.723Z,2.90
2022-07-28T07:53:08.821Z,2.30
2022-07-28T07:55:37.850Z,2.70
2022-07-28T07:58:06.632Z,2.93
2022-07-28T08:00:35.782Z,3.00
2022-07-28T08:03:11.191Z,3.20
2022-07-28T08:05:40.417Z,3.47
2022-07-28T08:08:09.507Z,3.43
2022-07-28T08:10:40.487Z,3.50
2022-07-28T08:13:09.934Z,3.60
2022-07-28T08:15:37.991Z,3.63
2022-07-28T08:18:07.511Z,3.23
2022-07-28T08:20:35.564Z,3.73
2022-07-28T08:23:03.703Z,3.67
2022-07-28T08:25:31.780Z,3.50
2022-07-28T08:27:59.857Z,3.50
2022-07-28T08:30:32.427Z,3.80
2022-07-28T08:33:02.718Z,3.70
2022-07-28T08:35:35.149Z,3.23
2022-07-28T08:38:05.347Z,3.73
2022-07-28T08:40:33.777Z,3.90
2022-07-28T08:43:53.482Z,3.87
2022-07-28T08:46:25.624Z,4.07
2022-07-28T08:48:54.100Z,3.87
2022-07-28T08:51:28.408Z,3.87
2022-07-28T08:53:58.531Z,3.50
2022-07-28T08:56:28.057Z,3.40
2022-07-28T08:58:56.924Z,3.63
2022-07-28T09:01:25.694Z,3.27
2022-07-28T09:04:08.992Z,3.83
2022-07-28T09:06:41.994Z,3.53
2022-07-28T09:09:10.913Z,3.93
2022-07-28T09:11:39.948Z,3.67
2022-07-28T09:14:08.144Z,3.70
2022-07-28T09:16:36.212Z,3.80
2022-07-28T09:19:04.613Z,3.50
2022-07-28T09:21:33.307Z,3.60
2022-07-28T09:24:02.714Z,3.50
2022-07-28T09:26:30.756Z,3.80
2022-07-28T09:29:02.312Z,3.53
2022-07-28T09:31:31.254Z,3.47
2022-07-28T09:34:02.377Z,4.00
2022-07-28T09:36:37.659Z,4.43
2022-07-28T09:39:07.382Z,3.70
2022-07-28T09:41:48.938Z,3.50
2022-07-28T09:44:20.386Z,3.67
2022-07-28T09:46:48.840Z,3.60
2022-07-28T09:49:17.442Z,3.47
2022-07-28T09:52:01.459Z,3.67
2022-07-28T09:54:30.913Z,3.20
2022-07-28T09:56:59.086Z,3.93
2022-07-28T09:59:27.583Z,3.60
2022-07-28T10:02:00.996Z,3.80
2022-07-28T10:04:32.622Z,3.30
2022-07-28T10:07:06.500Z,3.90
2022-07-28T10:09:36.515Z,3.40
2022-07-28T10:12:19.708Z,3.43
2022-07-28T10:14:48.226Z,3.47
2022-07-28T10:17:31.901Z,4.13
2022-07-28T10:20:01.375Z,3.30
2022-07-28T10:22:33.320Z,3.50
2022-07-28T10:25:09.657Z,3.57
2022-07-28T10:27:41.361Z,3.90
2022-07-28T10:30:11.703Z,3.50
2022-07-28T10:32:43.223Z,3.40
2022-07-28T10:35:13.752Z,3.10
2022-07-28T10:37:52.327Z,3.57
2022-07-28T10:40:27.401Z,3.57
2022-07-28T10:42:56.306Z,3.30
2022-07-28T10:45:42.023Z,3.13
2022-07-28T10:48:13.942Z,3.23
2022-07-28T10:50:42.452Z,3.40
2022-07-28T10:53:20.364Z,3.37
2022-07-28T10:55:55.901Z,2.93
2022-07-28T10:58:40.051Z,3.07
2022-07-28T11:01:17.077Z,3.37
2022-07-28T11:03:54.935Z,3.33
2022-07-28T11:06:34.657Z,3.10
2022-07-28T11:09:32.847Z,3.07
2022-07-28T11:12:02.673Z,3.37
2022-07-28T11:14:39.559Z,3.03
2022-07-28T11:17:24.417Z,3.40
2022-07-28T11:20:27.164Z,3.40
2022-07-28T11:22:51.618Z,3.27
2022-07-28T11:25:22.311Z,3.00
2022-07-28T11:28:05.995Z,3.20
2022-07-28T11:30:55.202Z,3.33
2022-07-28T11:33:24.767Z,2.93
2022-07-28T11:35:58.914Z,3.00
2022-07-28T11:38:28.312Z,2.83
2022-07-28T11:40:57.604Z,2.77
2022-07-28T11:43:41.039Z,2.93
2022-07-28T11:46:36.080Z,2.77
2022-07-28T11:49:21.780Z,3.10
2022-07-28T11:52:23.101Z,3.17
2022-07-28T11:54:57.161Z,3.30
2022-07-28T11:57:29.406Z,2.70
2022-07-28T12:00:07.074Z,3.37
2022-07-28T12:02:37.177Z,3.33
2022-07-28T12:05:12.589Z,3.30
2022-07-28T12:07:48.500Z,2.97
2022-07-28T12:10:53.969Z,3.10
2022-07-28T12:13:29.954Z,3.10
2022-07-28T12:15:59.431Z,3.20
2022-07-28T12:18:27.555Z,3.10
2022-07-28T12:20:56.022Z,2.80
2022-07-28T12:23:38.664Z,3.10
2022-07-28T12:26:13.844Z,3.13
2022-07-28T12:28:51.505Z,3.00
2022-07-28T12:31:25.796Z,2.97
2022-07-28T12:33:54.471Z,3.00
2022-07-28T12:36:24.176Z,2.93
2022-07-28T12:38:53.524Z,2.63
2022-07-28T12:41:21.802Z,3.30
2022-07-28T12:43:55.188Z,3.33
2022-07-28T12:46:28.621Z,3.10
2022-07-28T12:48:59.167Z,3.40
2022-07-28T12:51:36.249Z,3.00
2022-07-28T12:54:07.349Z,3.70
2022-07-28T12:56:47.003Z,3.20
2022-07-28T12:59:16.079Z,3.30
2022-07-28T13:01:54.533Z,3.33
2022-07-28T13:04:45.325Z,3.00
2022-07-28T13:07:15.646Z,2.80
2022-07-28T13:10:00.291Z,3.10
2022-07-28T13:12:30.798Z,2.97
2022-07-28T13:15:00.787Z,2.90
2022-07-28T13:17:49.317Z,2.57
2022-07-28T13:20:18.045Z,2.80
2022-07-28T13:22:46.652Z,2.70
2022-07-28T13:25:15.605Z,3.00
2022-07-28T13:27:43.977Z,2.93
2022-07-28T13:30:13.164Z,2.90
2022-07-28T13:32:42.711Z,3.37
2022-07-28T13:35:14.934Z,2.40
2022-07-28T13:37:44.058Z,3.20
2022-07-28T13:40:13.546Z,2.83
2022-07-28T13:42:52.951Z,2.63
2022-07-28T13:45:24.734Z,2.90
2022-07-28T13:47:59.562Z,2.80
2022-07-28T13:50:27.879Z,2.53
2022-07-28T13:52:56.123Z,2.83
2022-07-28T13:55:24.664Z,3.00
2022-07-28T13:57:56.559Z,2.70
2022-07-28T14:00:25.292Z,2.50
2022-07-28T14:02:53.441Z,2.63
2022-07-28T14:05:23.065Z,2.90
2022-07-28T14:07:51.619Z,2.50
2022-07-28T14:10:19.760Z,2.60
2022-07-28T14:12:47.801Z,2.90
2022-07-28T14:15:16.230Z,2.57
2022-07-28T14:17:45.957Z,2.60
2022-07-28T14:20:15.678Z,2.70
2022-07-28T14:22:46.861Z,2.77
2022-07-28T14:25:20.684Z,2.60
2022-07-28T14:27:50.649Z,2.70
2022-07-28T14:30:19.730Z,2.93
2022-07-28T14:32:47.961Z,2.70
2022-07-28T14:40:59.765Z,2.40
2022-07-28T14:43:27.816Z,2.87
2022-07-28T14:46:12.522Z,2.90
2022-07-28T14:48:43.106Z,2.73
2022-07-28T14:51:12.699Z,2.83
2022-07-28T14:53:51.537Z,2.90
2022-07-28T14:56:20.386Z,2.97
2022-07-28T14:58:48.480Z,2.80
2022-07-28T15:01:16.533Z,2.70
2022-07-28T15:03:44.656Z,2.73
2022-07-28T15:06:12.759Z,2.43
2022-07-28T15:08:40.799Z,2.40
2022-07-28T15:11:10.368Z,2.57
2022-07-28T15:13:38.423Z,2.80
2022-07-28T15:16:07.432Z,2.67
2022-07-28T15:18:35.817Z,2.57
2022-07-28T15:21:04.533Z,2.37
2022-07-28T15:23:32.603Z,3.00
2022-07-28T15:26:00.734Z,2.90
2022-07-28T15:28:33.486Z,3.23
2022-07-28T15:31:01.668Z,2.47
2022-07-28T15:33:29.863Z,2.33
2022-07-28T15:36:00.753Z,3.23
2022-07-28T15:38:31.630Z,2.53
2022-07-28T15:41:00.410Z,2.33
2022-07-28T15:43:28.887Z,2.87
2022-07-28T15:45:58.608Z,3.00
2022-07-28T15:48:26.686Z,2.90
2022-07-28T15:50:54.720Z,2.83
2022-07-28T15:53:22.764Z,2.70
2022-07-28T15:55:51.877Z,2.60
2022-07-28T15:58:20.481Z,2.73
2022-07-28T16:00:49.035Z,2.70
2022-07-28T16:03:18.479Z,2.50
2022-07-28T16:05:49.780Z,2.63
2022-07-28T16:08:22.410Z,2.63
2022-07-28T16:10:53.103Z,2.70
2022-07-28T16:13:36.190Z,2.73
2022-07-28T16:16:08.213Z,2.50
2022-07-28T16:18:40.101Z,3.10
2022-07-28T16:21:09.932Z,2.63
2022-07-28T16:23:38.147Z,2.70
2022-07-28T16:26:09.033Z,2.80
2022-07-28T16:28:37.340Z,2.83
2022-07-28T16:31:05.769Z,2.40
2022-07-28T16:33:34.115Z,2.50
2022-07-28T16:36:04.032Z,2.20
2022-07-28T16:38:32.091Z,2.90
2022-07-28T16:41:00.163Z,2.43
2022-07-28T16:43:28.223Z,2.83
2022-07-28T16:45:56.353Z,3.30
2022-07-28T16:48:24.468Z,2.53
2022-07-28T16:50:52.559Z,2.47
2022-07-28T16:53:22.131Z,2.57
2022-07-28T16:55:50.285Z,2.73
2022-07-28T16:58:19.941Z,2.70
2022-07-28T17:00:48.005Z,2.07
2022-07-28T17:03:16.936Z,2.63
2022-07-28T17:05:45.469Z,2.70
2022-07-28T17:08:13.598Z,2.47
2022-07-28T17:10:43.033Z,2.50
2022-07-28T17:13:11.995Z,2.60
2022-07-28T17:15:41.425Z,2.60
2022-07-28T17:18:09.585Z,2.50
2022-07-28T17:20:41.913Z,2.67
2022-07-28T17:23:10.369Z,2.50
2022-07-28T17:28:28.438Z,2.77
2022-07-28T17:30:56.704Z,2.50
2022-07-28T17:33:25.119Z,2.30
2022-07-28T17:35:55.055Z,2.63
2022-07-28T17:38:29.493Z,2.40
2022-07-28T17:41:03.768Z,2.57
2022-07-28T17:43:33.333Z,2.43
2022-07-28T17:46:01.600Z,2.20
2022-07-28T17:48:31.050Z,2.40
2022-07-28T17:50:59.319Z,2.43
2022-07-28T17:53:27.531Z,2.40
2022-07-28T17:56:01.183Z,2.70
2022-07-28T17:58:32.192Z,2.37
2022-07-28T18:01:09.697Z,2.17
2022-07-28T18:03:58.866Z,2.20
2022-07-28T18:06:32.107Z,2.33
2022-07-28T18:09:05.770Z,2.87
2022-07-28T18:11:55.663Z,2.43
2022-07-28T18:14:25.418Z,2.70
2022-07-28T18:16:55.190Z,2.30
2022-07-28T18:19:23.255Z,2.30
2022-07-28T18:21:51.531Z,2.60
2022-07-28T18:24:22.214Z,2.57
2022-07-28T18:26:51.027Z,2.63
2022-07-28T18:29:20.307Z,2.80
2022-07-28T18:31:52.029Z,2.70
2022-07-28T18:34:24.654Z,2.63
2022-07-28T18:36:53.622Z,2.30
2022-07-28T18:39:22.183Z,2.30
2022-07-28T18:41:50.201Z,2.60
2022-07-28T18:44:19.513Z,2.60
2022-07-28T18:46:48.360Z,2.60
2022-07-28T18:49:16.677Z,2.43
2022-07-28T18:51:46.157Z,2.30
2022-07-28T18:54:18.506Z,2.37
2022-07-28T18:56:48.335Z,2.30
2022-07-28T18:59:16.587Z,2.37
2022-07-28T19:01:44.888Z,2.70
2022-07-28T19:04:13.445Z,2.20
2022-07-28T19:06:42.380Z,2.53
2022-07-28T19:09:11.854Z,2.63
2022-07-28T19:11:45.368Z,2.53
2022-07-28T19:14:14.497Z,2.70
2022-07-28T19:16:42.829Z,2.60
2022-07-28T19:19:11.040Z,2.40
2022-07-28T19:21:43.545Z,2.33
2022-07-28T19:24:14.862Z,2.23
2022-07-28T19:26:45.562Z,1.90
2022-07-28T19:29:14.210Z,2.50
2022-07-28T19:31:42.389Z,2.33
2022-07-28T19:34:10.940Z,2.57
2022-07-28T19:36:40.330Z,2.40
2022-07-28T19:39:08.982Z,2.30
2022-07-28T19:41:38.447Z,2.67
2022-07-28T19:44:06.649Z,2.50
2022-07-28T19:46:34.759Z,2.30
2022-07-28T19:49:03.149Z,2.60
2022-07-28T19:51:31.325Z,2.80
2022-07-28T19:54:00.325Z,2.50
2022-07-28T19:56:31.586Z,2.40
2022-07-28T19:59:01.415Z,2.83
2022-07-28T20:01:33.628Z,2.60
2022-07-28T20:04:05.158Z,2.37
2022-07-28T20:06:34.289Z,2.23
2022-07-28T20:09:03.575Z,2.60
2022-07-28T20:11:32.762Z,2.50
2022-07-28T20:14:02.589Z,2.40
2022-07-28T20:16:31.450Z,2.40
2022-07-28T20:18:59.704Z,2.80
2022-07-28T20:21:27.936Z,2.80
2022-07-28T20:23:57.798Z,2.70
2022-07-28T20:26:27.015Z,2.67
2022-07-28T20:28:56.255Z,3.00
2022-07-28T20:31:25.973Z,2.90
2022-07-28T20:33:54.138Z,2.80
2022-07-28T20:36:25.071Z,3.07
2022-07-28T20:38:57.433Z,3.00
2022-07-28T20:41:25.587Z,3.00
2022-07-28T20:44:18.507Z,3.20
2022-07-28T20:46:43.568Z,2.90
2022-07-28T20:49:11.679Z,3.13
2022-07-28T20:51:40.167Z,2.70
2022-07-28T20:54:19.045Z,2.70
2022-07-28T20:56:47.237Z,2.73
2022-07-28T20:59:15.677Z,2.70
2022-07-28T21:01:45.159Z,2.43
2022-07-28T21:04:13.724Z,2.97
2022-07-28T21:06:50.925Z,3.00
2022-07-28T21:09:20.832Z,2.70
2022-07-28T21:11:48.905Z,2.20
2022-07-28T21:14:17.254Z,2.20
2022-07-28T21:16:46.990Z,2.70
2022-07-28T21:19:15.091Z,2.57
2022-07-28T21:21:43.189Z,2.90
2022-07-28T21:24:11.270Z,2.87
2022-07-28T21:26:41.609Z,2.50
2022-07-28T21:29:12.296Z,2.57
2022-07-28T21:32:02.354Z,2.30
2022-07-28T21:34:33.919Z,2.57
2022-07-28T21:37:03.169Z,2.40
2022-07-28T21:39:31.516Z,2.50
2022-07-28T21:41:59.897Z,2.90
2022-07-28T21:44:28.099Z,2.40
2022-07-28T21:46:56.142Z,2.20
2022-07-28T21:49:24.409Z,2.57
2022-07-28T21:51:53.964Z,2.17
2022-07-28T21:54:22.042Z,2.43
2022-07-28T21:56:50.184Z,3.03
2022-07-28T21:59:18.230Z,2.83
2022-07-28T22:01:46.339Z,2.37
2022-07-28T22:04:14.764Z,2.77
2022-07-28T22:06:44.044Z,2.60
2022-07-28T22:09:16.352Z,2.50
2022-07-28T22:11:45.357Z,2.80
2022-07-28T22:14:13.981Z,2.80
2022-07-28T22:16:42.296Z,2.50
2022-07-28T22:19:11.881Z,2.90
2022-07-28T22:21:39.988Z,2.50
2022-07-28T22:24:09.126Z,2.57
2022-07-28T22:26:38.486Z,2.70
2022-07-28T22:29:06.592Z,2.73
2022-07-28T22:31:34.779Z,2.80
2022-07-28T22:34:03.012Z,2.70
2022-07-28T22:36:31.173Z,2.63
2022-07-28T22:38:59.445Z,2.53
2022-07-28T22:41:27.535Z,2.93
2022-07-28T22:43:57.162Z,2.43
2022-07-28T22:46:25.235Z,2.40
2022-07-28T22:48:53.330Z,2.97
2022-07-28T22:51:21.566Z,2.90
2022-07-28T22:53:49.632Z,2.57
2022-07-28T22:56:18.102Z,3.07
2022-07-28T22:58:46.193Z,2.80
2022-07-28T23:01:15.710Z,3.03
2022-07-28T23:03:46.194Z,2.90
2022-07-28T23:06:14.569Z,3.30
2022-07-28T23:08:42.787Z,3.43
2022-07-28T23:11:10.885Z,2.70
2022-07-28T23:13:39.030Z,2.90
2022-07-28T23:16:09.107Z,2.90
2022-07-28T23:18:40.302Z,2.90
2022-07-28T23:21:08.842Z,2.93
2022-07-28T23:23:37.071Z,3.47
2022-07-28T23:26:05.994Z,2.53
2022-07-28T23:28:36.026Z,3.30
2022-07-28T23:31:04.251Z,3.20
2022-07-28T23:33:54.999Z,2.77
2022-07-28T23:36:27.607Z,3.00
2022-07-28T23:38:57.541Z,3.13
2022-07-28T23:41:26.732Z,3.10
2022-07-28T23:43:54.915Z,3.40
2022-07-28T23:46:24.293Z,3.20
2022-07-28T23:48:52.567Z,3.13
2022-07-28T23:51:22.543Z,3.30
2022-07-28T23:54:10.588Z,3.40
2022-07-28T23:56:43.064Z,3.30
2022-07-28T23:59:13.967Z,3.60
